Time;durP1;ratioP1;P1;durP2;ratioP2;P2;SDS_P1;SDS_P2;PMS_P1;PMS_P2;Temp;Humidity;BMP_temperature;BMP_pressure;BME280_temperature;BME280_humidity;BME280_pressure;Samples;Min_cycle;Max_cycle;Signal;HPM_P1;HPM_P2
2022/09/27 00:00:07;;;;;;;19.98;5.30;;;;;;;8.44;100.00;99445.25;1970424;28;20073;-69
2022/09/27 00:01:10;;;;;;;15.40;5.68;;;;;;;8.45;100.00;99446.09;1970343;28;20406;-71
2022/09/27 00:02:07;;;;;;;13.38;5.40;;;;;;;8.44;100.00;99444.41;1970395;28;20040;-72
2022/09/27 00:03:05;;;;;;;18.40;5.22;;;;;;;8.44;100.00;99445.25;1970326;28;20056;-69
2022/09/27 00:04:02;;;;;;;14.05;5.10;;;;;;;8.41;100.00;99448.03;1970363;28;20084;-68
2022/09/27 00:04:59;;;;;;;14.88;5.18;;;;;;;8.45;100.00;99441.72;1970227;28;20436;-70
2022/09/27 00:06:11;;;;;;;14.25;4.13;;;;;;;8.45;100.00;99440.91;1970297;28;20018;-70
2022/09/27 00:07:09;;;;;;;14.38;5.13;;;;;;;8.53;100.00;99441.34;1970270;28;20102;-67
2022/09/27 00:08:08;;;;;;;15.50;4.47;;;;;;;8.47;100.00;99437.28;1970416;28;20113;-68
2022/09/27 00:09:05;;;;;;;17.27;4.78;;;;;;;8.48;100.00;99441.56;1970222;28;20047;-68
2022/09/27 00:10:03;;;;;;;15.18;4.60;;;;;;;8.49;100.00;99437.22;1970272;28;20497;-71
2022/09/27 00:11:05;;;;;;;17.73;4.90;;;;;;;8.49;100.00;99437.22;1970205;28;20481;-69
2022/09/27 00:12:03;;;;;;;18.75;4.90;;;;;;;8.46;100.00;99440.78;1970217;28;20105;-68
2022/09/27 00:13:00;;;;;;;9.77;4.25;;;;;;;8.45;100.00;99436.53;1970201;28;20025;-70
2022/09/27 00:13:59;;;;;;;12.35;4.53;;;;;;;8.44;100.00;99440.06;1968132;28;20101;-68
2022/09/27 00:14:57;;;;;;;17.58;3.88;;;;;;;8.48;100.00;99440.72;1970190;28;20028;-70
2022/09/27 00:16:00;;;;;;;13.38;4.13;;;;;;;8.53;100.00;99445.66;1970414;28;20038;-69
2022/09/27 00:16:58;;;;;;;8.15;3.53;;;;;;;8.47;100.00;99439.91;1970306;28;20370;-67
2022/09/27 00:17:55;;;;;;;15.73;4.20;;;;;;;8.48;100.00;99441.56;1970268;28;20072;-70
2022/09/27 00:18:59;;;;;;;14.15;3.75;;;;;;;8.47;100.00;99450.28;1970292;28;20029;-68
2022/09/27 00:19:59;;;;;;;15.50;4.00;;;;;;;8.46;100.00;99446.00;1970262;28;20445;-67
2022/09/27 00:21:07;;;;;;;12.63;3.80;;;;;;;8.46;100.00;99448.59;1970238;28;20024;-68
2022/09/27 00:22:05;;;;;;;14.63;3.90;;;;;;;8.46;100.00;99448.59;1970217;28;20033;-71
2022/09/27 00:23:02;;;;;;;14.05;3.13;;;;;;;8.47;100.00;99449.44;1970252;28;20056;-67
2022/09/27 00:24:00;;;;;;;13.27;3.00;;;;;;;8.48;100.00;99445.91;1970227;28;20037;-67
2022/09/27 00:24:58;;;;;;;11.98;3.55;;;;;;;8.46;100.00;99455.56;1970236;28;20030;-69
2022/09/27 00:25:58;;;;;;;15.50;3.17;;;;;;;8.45;100.00;99452.13;1970190;28;20441;-70
2022/09/27 00:26:56;;;;;;;8.57;3.05;;;;;;;8.43;100.00;99453.13;1970255;28;20029;-70
2022/09/27 00:27:54;;;;;;;12.80;3.13;;;;;;;8.41;100.00;99453.22;1970194;28;20039;-70
2022/09/27 00:28:52;;;;;;;9.98;3.20;;;;;;;8.42;100.00;99456.69;1970289;28;20056;-68
2022/09/27 00:29:49;;;;;;;13.07;3.55;;;;;;;8.47;100.00;99459.84;1969475;28;20139;-67
2022/09/27 00:30:47;;;;;;;15.38;3.22;;;;;;;8.45;100.00;99457.31;1969615;28;20076;-69
2022/09/27 00:31:45;;;;;;;11.18;3.55;;;;;;;8.45;100.00;99462.53;1970087;28;20035;-69
2022/09/27 00:32:43;;;;;;;9.82;2.80;;;;;;;8.43;100.00;99463.53;1970293;28;20083;-67
2022/09/27 00:33:40;;;;;;;10.65;2.90;;;;;;;8.44;100.00;99471.25;1970073;28;20521;-67
2022/09/27 00:34:39;;;;;;;10.23;2.85;;;;;;;8.45;100.00;99479.91;1970223;28;20036;-68
2022/09/27 00:35:37;;;;;;;11.38;3.05;;;;;;;8.46;100.00;99474.59;1970063;28;20040;-66
2022/09/27 00:36:34;;;;;;;8.20;2.50;;;;;;;8.44;100.00;99481.66;1969882;28;20034;-69
2022/09/27 00:37:32;;;;;;;10.10;2.30;;;;;;;8.42;100.00;99488.69;1970128;28;20401;-68
2022/09/27 00:38:29;;;;;;;7.82;2.40;;;;;;;8.44;100.00;99486.84;1970023;28;20046;-66
2022/09/27 00:39:27;;;;;;;9.18;2.30;;;;;;;8.49;100.00;99492.63;1970245;28;20076;-69
2022/09/27 00:40:24;;;;;;;9.75;2.55;;;;;;;8.46;100.00;99468.56;1970182;28;20540;-73
2022/09/27 00:41:26;;;;;;;6.47;1.88;;;;;;;8.36;100.00;99447.44;1970121;28;20113;-70
2022/09/27 00:42:23;;;;;;;7.93;2.10;;;;;;;8.32;100.00;99466.75;1970051;28;20470;-74
2022/09/27 00:43:22;;;;;;;5.00;2.40;;;;;;;8.37;100.00;99472.53;1968155;28;20037;-72
2022/09/27 00:44:32;;;;;;;6.15;2.30;;;;;;;8.34;100.00;99476.13;1968632;28;20032;-69
2022/09/27 00:45:29;;;;;;;13.60;2.08;;;;;;;8.33;100.00;99474.47;1969324;28;20068;-68
2022/09/27 00:46:36;;;;;;;6.25;1.67;;;;;;;8.43;100.00;99471.34;1969381;28;20109;-70
2022/09/27 00:47:44;;;;;;;7.57;2.30;;;;;;;8.38;100.00;99464.63;1970100;28;20486;-70
2022/09/27 00:48:41;;;;;;;7.88;2.28;;;;;;;8.41;100.00;99470.59;1969963;28;20106;-68
2022/09/27 00:49:57;;;;;;;9.20;2.08;;;;;;;8.40;100.00;99469.75;1969980;28;20057;-70
2022/09/27 00:50:59;;;;;;;7.85;2.30;;;;;;;8.38;100.00;99464.63;1969890;28;20034;-68
2022/09/27 00:52:22;;;;;;;8.23;2.40;;;;;;;8.36;100.00;99468.25;1970033;28;20041;-69
2022/09/27 00:53:32;;;;;;;9.98;2.33;;;;;;;8.37;100.00;99465.56;1969522;28;20117;-70
2022/09/27 00:54:35;;;;;;;9.43;2.30;;;;;;;8.35;100.00;99463.97;1969950;28;20478;-71
2022/09/27 00:55:43;;;;;;;13.32;2.50;;;;;;;8.36;100.00;99468.25;1970018;28;20286;-67
2022/09/27 00:56:43;;;;;;;11.27;2.45;;;;;;;8.34;100.00;99465.72;1969337;28;20394;-68
2022/09/27 00:57:43;;;;;;;9.13;2.40;;;;;;;8.34;100.00;99475.28;1969338;28;20030;-73
2022/09/27 00:58:47;;;;;;;;;;;;;;;8.31;100.00;99465.06;1970339;28;20497;-70
2022/09/27 00:59:57;;;;;;;9.05;2.00;;;;;;;8.31;100.00;99465.06;1969973;28;19909;-71
2022/09/27 01:01:00;;;;;;;;;;;;;;;8.30;100.00;99465.97;1970263;28;20029;-69
2022/09/27 01:01:57;;;;;;;5.25;2.00;;;;;;;8.31;100.00;99465.06;1969945;28;19909;-72
2022/09/27 01:02:56;;;;;;;13.00;3.03;;;;;;;8.32;100.00;99466.75;1969826;28;20104;-70
2022/09/27 01:04:10;;;;;;;11.00;2.42;;;;;;;8.30;100.00;99465.97;1969920;28;20037;-70
2022/09/27 01:05:12;;;;;;;6.85;2.20;;;;;;;8.30;100.00;99469.44;1969816;28;20033;-71
2022/09/27 01:06:11;;;;;;;12.98;2.50;;;;;;;8.29;100.00;99461.72;1969907;28;20033;-72
2022/09/27 01:07:08;;;;;;;5.30;2.05;;;;;;;8.31;100.00;99463.28;1969803;28;20295;-72
2022/09/27 01:08:06;;;;;;;6.72;2.17;;;;;;;8.28;100.00;99466.06;1969267;28;20409;-70
2022/09/27 01:09:10;;;;;;;10.25;2.30;;;;;;;8.31;100.00;99465.06;1969474;28;20029;-70
2022/09/27 01:10:09;;;;;;;9.68;2.35;;;;;;;8.30;100.00;99465.97;1969910;28;20040;-70
2022/09/27 01:11:35;;;;;;;9.30;2.17;;;;;;;8.30;100.00;99465.97;1970014;28;20152;-70
2022/09/27 01:13:13;;;;;;;10.20;1.98;;;;;;;8.24;100.00;99470.59;1969978;28;20033;-71
2022/09/27 01:14:40;;;;;;;8.05;2.00;;;;;;;8.21;100.00;99475.13;1966813;28;20118;-70
2022/09/27 01:16:11;;;;;;;8.35;1.70;;;;;;;8.17;100.00;99474.44;1969508;28;20122;-70
2022/09/27 01:17:26;;;;;;;4.85;1.70;;;;;;;8.18;100.00;99470.09;1969354;28;20417;-69
2022/09/27 01:18:49;;;;;;;11.52;2.22;;;;;;;8.15;100.00;99476.31;1969342;28;20040;-69
2022/09/27 01:20:24;;;;;;;9.88;1.88;;;;;;;8.14;100.00;99469.41;1969840;28;20030;-69
2022/09/27 01:22:06;;;;;;;7.85;1.80;;;;;;;8.13;100.00;99470.34;1969925;28;20036;-71
2022/09/27 01:23:38;;;;;;;7.03;1.40;;;;;;;8.11;100.00;99461.81;1969639;28;20046;-71
2022/09/27 01:25:00;;;;;;;6.40;1.60;;;;;;;8.11;100.00;99469.59;1969823;28;20397;-70
2022/09/27 01:26:31;;;;;;;10.27;1.55;;;;;;;8.08;100.00;99469.75;1969836;28;20033;-70
2022/09/27 01:28:12;;;;;;;14.73;1.80;;;;;;;8.05;100.00;99464.72;1970141;28;20021;-72
2022/09/27 01:29:43;;;;;;;;;;;;;;;8.03;100.00;99469.16;1969722;28;20036;-70
2022/09/27 01:30:46;;;;;;;13.48;1.70;;;;;;;8.02;100.00;99470.06;1969630;28;19967;-70
2022/09/27 01:32:09;;;;;;;3.78;1.35;;;;;;;8.05;100.00;99475.97;1969806;28;20109;-70
2022/09/27 01:33:38;;;;;;;9.88;1.50;;;;;;;8.03;100.00;99474.34;1969886;28;20109;-70
2022/09/27 01:35:06;;;;;;;7.00;1.73;;;;;;;7.99;100.00;99474.53;1969711;28;20029;-70
2022/09/27 01:36:19;;;;;;;9.57;1.40;;;;;;;8.01;100.00;99479.66;1969851;28;20400;-70
2022/09/27 01:37:55;;;;;;;8.07;1.70;;;;;;;7.98;100.00;99475.44;1969063;28;20048;-70
2022/09/27 01:39:19;;;;;;;6.05;1.38;;;;;;;7.96;100.00;99471.25;1969528;28;20045;-69
2022/09/27 01:40:25;;;;;;;11.70;1.73;;;;;;;7.97;100.00;99484.16;1976887;28;20033;-70
2022/09/27 01:41:44;;;;;;;8.98;1.90;;;;;;;7.99;100.00;99487.53;1969095;28;20114;-69
2022/09/27 01:43:30;;;;;;;10.93;1.70;;;;;;;7.96;100.00;99477.28;1969236;28;20413;-70
2022/09/27 01:44:44;;;;;;;9.70;1.80;;;;;;;7.97;100.00;99491.94;1964032;28;20042;-70
2022/09/27 01:45:58;;;;;;;5.60;1.60;;;;;;;7.96;100.00;99492.88;1969741;28;20038;-72
2022/09/27 01:47:10;;;;;;;8.52;1.63;;;;;;;7.97;100.00;99483.31;1969573;28;20076;-69
2022/09/27 01:48:21;;;;;;;7.65;1.77;;;;;;;7.90;100.00;99484.59;1969830;28;20423;-70
2022/09/27 01:49:34;;;;;;;10.50;1.77;;;;;;;7.89;100.00;99475.94;1969694;28;20036;-69
2022/09/27 01:50:41;;;;;;;8.50;1.85;;;;;;;7.89;100.00;99486.31;1969838;28;20029;-71
2022/09/27 01:51:52;;;;;;;7.93;1.98;;;;;;;7.93;100.00;99494.78;1969589;28;20124;-69
2022/09/27 01:53:00;;;;;;;8.90;1.70;;;;;;;7.90;100.00;99493.19;1969691;28;20041;-72
2022/09/27 01:54:03;;;;;;;11.50;2.10;;;;;;;7.86;100.00;99494.28;1969741;28;20061;-70
2022/09/27 01:55:06;;;;;;;8.10;1.83;;;;;;;7.86;100.00;99491.69;1969665;28;20022;-68
2022/09/27 01:56:12;;;;;;;7.32;1.80;;;;;;;7.84;100.00;99490.94;1969719;28;20049;-69
2022/09/27 01:57:18;;;;;;;10.45;1.75;;;;;;;7.87;100.00;99488.16;1969680;28;20038;-69
2022/09/27 01:58:44;;;;;;;9.95;2.20;;;;;;;7.83;100.00;99491.84;1969758;28;20068;-72
2022/09/27 01:59:54;;;;;;;11.23;1.80;;;;;;;7.80;100.00;99492.03;1969221;28;20046;-74
2022/09/27 02:00:54;;;;;;;9.68;2.00;;;;;;;7.81;100.00;99504.06;1969774;28;20123;-69
2022/09/27 02:01:58;;;;;;;7.18;1.50;;;;;;;7.81;100.00;99509.28;1969630;28;20093;-69
2022/09/27 02:03:12;;;;;;;7.88;2.00;;;;;;;7.83;100.00;99512.63;1969827;28;20443;-70
2022/09/27 02:04:19;;;;;;;7.65;1.70;;;;;;;7.83;100.00;99504.81;1969613;28;20385;-70
2022/09/27 02:05:19;;;;;;;11.57;1.70;;;;;;;7.81;100.00;99496.28;1969751;28;20035;-70
2022/09/27 02:06:33;;;;;;;5.72;1.40;;;;;;;7.80;100.00;99494.63;1969720;28;20084;-75
2022/09/27 02:07:54;;;;;;;5.25;1.50;;;;;;;7.82;100.00;99490.16;1969616;28;20092;-71
2022/09/27 02:09:02;;;;;;;5.15;1.30;;;;;;;7.79;100.00;99487.72;1969754;28;20126;-71
2022/09/27 02:10:15;;;;;;;6.70;1.40;;;;;;;7.79;100.00;99490.31;1969538;28;20029;-71
2022/09/27 02:11:16;;;;;;;5.80;1.70;;;;;;;7.73;100.00;99489.72;1969707;28;20033;-70
2022/09/27 02:12:24;;;;;;;2.78;1.40;;;;;;;7.70;100.00;99484.69;1968899;28;20037;-74
2022/09/27 02:13:34;;;;;;;8.43;1.50;;;;;;;7.78;100.00;99480.84;1968266;28;20513;-69
2022/09/27 02:14:53;;;;;;;;;;;;;;;7.71;100.00;99496.78;1970043;28;20066;-70
2022/09/27 02:16:21;;;;;;;7.60;1.25;;;;;;;7.71;100.00;99499.38;1969664;28;19916;-70
2022/09/27 02:17:36;;;;;;;6.03;1.15;;;;;;;7.72;100.00;99502.78;1969645;28;20030;-75
2022/09/27 02:18:44;;;;;;;5.65;1.38;;;;;;;7.80;100.00;99507.59;1969598;28;20486;-70
2022/09/27 02:19:57;;;;;;;5.95;1.50;;;;;;;7.75;100.00;99499.19;1969575;28;20025;-70
2022/09/27 02:21:00;;;;;;;4.72;1.00;;;;;;;7.71;100.00;99504.56;1969614;28;20042;-71
2022/09/27 02:22:37;;;;;;;6.00;1.00;;;;;;;7.72;100.00;99501.03;1969740;28;20071;-72
2022/09/27 02:23:43;;;;;;;10.48;1.20;;;;;;;7.68;100.00;99499.53;1969622;28;20113;-71
2022/09/27 02:24:57;;;;;;;2.70;1.20;;;;;;;7.67;100.00;99503.03;1969545;28;20437;-75
2022/09/27 02:26:08;;;;;;;5.57;1.08;;;;;;;7.66;100.00;99498.75;1976780;28;20055;-71
2022/09/27 02:27:23;;;;;;;6.30;1.17;;;;;;;7.65;100.00;99494.50;1975799;28;20014;-72
2022/09/27 02:28:44;;;;;;;7.57;1.63;;;;;;;7.65;100.00;99504.88;1969457;28;20091;-72
2022/09/27 02:29:55;;;;;;;4.45;1.13;;;;;;;7.68;100.00;99494.34;1969581;28;20032;-72
2022/09/27 02:30:54;;;;;;;5.85;1.40;;;;;;;7.64;100.00;99498.00;1969540;28;20030;-70
2022/09/27 02:31:52;;;;;;;5.65;1.50;;;;;;;7.64;100.00;99492.81;1969512;28;20026;-73
2022/09/27 02:32:51;;;;;;;5.22;1.30;;;;;;;7.70;100.00;99491.66;1969494;28;20124;-70
2022/09/27 02:33:58;;;;;;;6.28;1.55;;;;;;;7.68;100.00;99491.75;1969070;28;20114;-68
2022/09/27 02:35:01;;;;;;;8.07;1.52;;;;;;;7.68;100.00;99496.94;1968963;28;20026;-72
2022/09/27 02:35:59;;;;;;;7.95;1.40;;;;;;;7.69;100.00;99496.00;1976895;28;20154;-71
2022/09/27 02:36:56;;;;;;;8.80;1.42;;;;;;;7.65;100.00;99494.50;1978030;28;20088;-69
2022/09/27 02:37:55;;;;;;;6.07;1.40;;;;;;;7.66;100.00;99496.16;1971731;28;20040;-75
2022/09/27 02:38:53;;;;;;;4.03;1.17;;;;;;;7.60;100.00;99494.72;1973825;28;20048;-71
2022/09/27 02:39:50;;;;;;;5.35;1.60;;;;;;;7.62;100.00;99505.03;1978828;28;20480;-71
2022/09/27 02:40:48;;;;;;;10.88;1.58;;;;;;;7.60;100.00;99509.47;1978852;28;20207;-71
2022/09/27 02:41:45;;;;;;;7.03;1.67;;;;;;;7.62;100.00;99510.22;1978601;28;20014;-71
2022/09/27 02:42:44;;;;;;;6.22;1.35;;;;;;;7.58;100.00;99521.69;1978781;28;20036;-70
2022/09/27 02:44:09;;;;;;;8.00;1.50;;;;;;;7.59;100.00;99520.75;1976332;28;20029;-71
2022/09/27 02:45:09;;;;;;;8.48;1.50;;;;;;;7.56;100.00;99521.75;1978546;28;20105;-69
2022/09/27 02:46:25;;;;;;;8.82;1.60;;;;;;;7.54;100.00;99518.41;1978659;28;20025;-71
2022/09/27 02:47:50;;;;;;;6.80;1.30;;;;;;;7.52;100.00;99524.59;1978537;28;20037;-70
2022/09/27 02:49:09;;;;;;;7.25;1.42;;;;;;;7.50;100.00;99508.25;1978715;28;20088;-71
2022/09/27 02:50:07;;;;;;;7.65;1.60;;;;;;;7.49;100.00;99516.97;1977841;28;20021;-71
2022/09/27 02:51:53;;;;;;;10.20;1.80;;;;;;;7.45;100.00;99508.47;1970278;28;20044;-70
2022/09/27 02:53:35;;;;;;;12.07;1.70;;;;;;;7.38;100.00;99502.75;1978467;28;20029;-69
2022/09/27 02:55:10;;;;;;;9.82;1.63;;;;;;;7.33;100.00;99503.00;1978838;28;20023;-70
2022/09/27 02:56:23;;;;;;;5.47;1.30;;;;;;;7.30;100.00;99503.16;1978534;28;20089;-72
2022/09/27 02:58:04;;;;;;;8.35;1.25;;;;;;;7.30;100.00;99510.09;1978617;28;20039;-69
2022/09/27 02:59:30;;;;;;;6.78;1.70;;;;;;;7.29;100.00;99503.25;1978772;28;20033;-69
2022/09/27 03:01:04;;;;;;;3.17;1.48;;;;;;;7.24;100.00;99500.03;1978664;28;20068;-69
2022/09/27 03:02:08;;;;;;;6.95;1.80;;;;;;;7.19;100.00;99511.47;1978788;28;20040;-70
2022/09/27 03:03:56;;;;;;;7.50;1.70;;;;;;;7.19;100.00;99503.69;1978754;28;20025;-70
2022/09/27 03:05:04;;;;;;;10.32;1.60;;;;;;;7.20;100.00;99496.75;1969971;28;20034;-68
2022/09/27 03:06:15;;;;;;;6.43;1.55;;;;;;;7.18;100.00;99499.41;1978529;28;20017;-69
2022/09/27 03:07:14;;;;;;;5.72;1.40;;;;;;;7.17;100.00;99500.34;1977996;28;20033;-68
2022/09/27 03:08:12;;;;;;;11.43;1.67;;;;;;;7.19;100.00;99508.88;1970110;28;20032;-72
2022/09/27 03:09:23;;;;;;;8.15;1.80;;;;;;;7.20;100.00;99505.38;1970166;28;20057;-73
2022/09/27 03:10:26;;;;;;;5.60;1.73;;;;;;;7.22;100.00;99508.72;1978135;28;20025;-70
2022/09/27 03:11:23;;;;;;;10.02;1.95;;;;;;;7.18;100.00;99504.59;1978545;28;20033;-71
2022/09/27 03:12:24;;;;;;;8.10;1.92;;;;;;;7.18;100.00;99507.19;1978448;28;20025;-70
2022/09/27 03:13:22;;;;;;;6.78;1.60;;;;;;;7.17;100.00;99510.72;1977137;28;20481;-71
2022/09/27 03:14:20;;;;;;;8.82;1.75;;;;;;;7.14;100.00;99503.09;1976435;28;20037;-70
2022/09/27 03:15:17;;;;;;;7.45;1.70;;;;;;;7.14;100.00;99503.09;1978527;28;20044;-71
2022/09/27 03:16:15;;;;;;;8.70;1.70;;;;;;;7.14;100.00;99505.69;1978553;28;20392;-68
2022/09/27 03:17:12;;;;;;;4.95;1.65;;;;;;;7.14;100.00;99500.50;1978382;28;20021;-70
2022/09/27 03:18:10;;;;;;;6.57;1.98;;;;;;;7.15;100.00;99499.56;1978501;28;20051;-70
2022/09/27 03:19:08;;;;;;;5.88;1.90;;;;;;;7.12;100.00;99499.72;1978594;28;20029;-67
2022/09/27 03:20:07;;;;;;;8.38;1.98;;;;;;;7.13;100.00;99498.81;1978524;28;20029;-68
2022/09/27 03:21:05;;;;;;;11.88;2.25;;;;;;;7.12;100.00;99496.28;1977833;28;20021;-71
2022/09/27 03:22:02;;;;;;;8.07;1.92;;;;;;;7.17;100.00;99500.34;1970448;28;20025;-69
2022/09/27 03:23:00;;;;;;;6.85;1.85;;;;;;;7.15;100.00;99496.97;1977100;28;20030;-72
2022/09/27 03:23:57;;;;;;;8.05;2.35;;;;;;;7.20;100.00;99501.94;1978340;28;20056;-71
2022/09/27 03:24:58;;;;;;;6.15;1.85;;;;;;;7.19;100.00;99508.88;1978487;28;20477;-72
2022/09/27 03:25:58;;;;;;;8.23;1.85;;;;;;;7.19;100.00;99508.88;1978734;28;20064;-70
2022/09/27 03:26:56;;;;;;;9.93;2.00;;;;;;;7.20;100.00;99505.38;1978446;28;20029;-69
2022/09/27 03:27:54;;;;;;;3.95;1.60;;;;;;;7.17;100.00;99505.53;1978582;28;20024;-72
2022/09/27 03:28:52;;;;;;;5.53;1.88;;;;;;;7.19;100.00;99511.47;1977413;28;20030;-71
2022/09/27 03:29:49;;;;;;;7.53;2.03;;;;;;;7.20;100.00;99518.34;1977895;28;20055;-73
2022/09/27 03:30:47;;;;;;;8.23;1.90;;;;;;;7.24;100.00;99516.44;1978520;28;20021;-73
2022/09/27 03:31:45;;;;;;;8.50;2.00;;;;;;;7.30;100.00;99517.88;1978349;28;20029;-73
2022/09/27 03:32:44;;;;;;;7.72;1.90;;;;;;;7.30;100.00;99510.94;1978488;28;20021;-69
2022/09/27 03:33:41;;;;;;;10.15;2.17;;;;;;;7.31;100.00;99511.78;1978279;28;20043;-71
2022/09/27 03:34:39;;;;;;;15.27;2.42;;;;;;;7.28;100.00;99517.13;1978445;28;20454;-69
2022/09/27 03:35:37;;;;;;;10.35;1.70;;;;;;;7.28;100.00;99517.13;1978440;28;20032;-69
2022/09/27 03:36:35;;;;;;;7.85;1.92;;;;;;;7.27;100.00;99515.44;1978160;28;20089;-69
2022/09/27 03:37:32;;;;;;;4.22;1.60;;;;;;;7.27;100.00;99505.91;1978318;28;20371;-69
2022/09/27 03:38:30;;;;;;;7.47;2.00;;;;;;;7.30;100.00;99510.09;1978400;28;20466;-75
2022/09/27 03:39:27;;;;;;;9.50;1.80;;;;;;;7.37;100.00;99513.22;1978414;28;20021;-70
2022/09/27 03:40:25;;;;;;;5.63;1.77;;;;;;;7.41;100.00;99520.78;1978391;28;20040;-71
2022/09/27 03:41:22;;;;;;;10.20;1.83;;;;;;;7.49;100.00;99519.56;1978404;28;20025;-70
2022/09/27 03:42:22;;;;;;;7.07;1.65;;;;;;;7.46;100.00;99521.38;1978266;28;20032;-73
2022/09/27 03:43:19;;;;;;;7.85;1.88;;;;;;;7.45;100.00;99519.72;1978519;28;20393;-76
2022/09/27 03:44:17;;;;;;;7.97;1.50;;;;;;;7.45;100.00;99511.94;1976518;28;20051;-71
2022/09/27 03:45:15;;;;;;;9.00;1.60;;;;;;;7.43;100.00;99507.75;1978419;28;20093;-71
2022/09/27 03:46:12;;;;;;;7.43;1.80;;;;;;;7.44;100.00;99518.03;1978381;28;20032;-69
2022/09/27 03:47:10;;;;;;;7.60;1.80;;;;;;;7.41;100.00;99520.78;1977936;28;20095;-71
2022/09/27 03:48:08;;;;;;;4.10;1.63;;;;;;;7.44;100.00;99523.22;1978235;28;20028;-72
2022/09/27 03:49:05;;;;;;;11.45;2.17;;;;;;;7.46;100.00;99520.56;1978291;28;20025;-71
2022/09/27 03:50:03;;;;;;;8.35;1.80;;;;;;;7.45;100.00;99519.72;1978330;28;20040;-70
2022/09/27 03:51:01;;;;;;;9.63;1.85;;;;;;;7.45;100.00;99527.50;1978464;28;20114;-72
2022/09/27 03:51:58;;;;;;;9.40;2.15;;;;;;;7.46;100.00;99531.78;1978242;28;20032;-71
2022/09/27 03:52:56;;;;;;;9.73;1.85;;;;;;;7.47;100.00;99528.25;1978398;28;20021;-72
2022/09/27 03:53:53;;;;;;;9.43;2.08;;;;;;;7.50;100.00;99531.63;1978446;28;20043;-74
2022/09/27 03:54:51;;;;;;;11.80;2.30;;;;;;;7.48;100.00;99526.50;1978292;28;20021;-72
2022/09/27 03:55:49;;;;;;;12.50;1.80;;;;;;;7.46;100.00;99531.78;1978551;28;20079;-72
2022/09/27 03:56:55;;;;;;;8.18;2.00;;;;;;;7.50;100.00;99536.81;1977375;28;20519;-72
2022/09/27 03:57:53;;;;;;;10.00;1.65;;;;;;;7.49;100.00;99541.16;1970187;28;20037;-73
2022/09/27 03:58:50;;;;;;;10.00;1.85;;;;;;;7.55;100.00;99540.84;1977677;28;20116;-70
2022/09/27 03:59:50;;;;;;;5.95;1.70;;;;;;;7.58;100.00;99542.44;1978255;28;20048;-71
2022/09/27 04:00:48;;;;;;;8.20;1.95;;;;;;;7.52;100.00;99550.56;1977581;28;20017;-73
2022/09/27 04:01:46;;;;;;;10.88;1.80;;;;;;;7.51;100.00;99546.28;1977642;28;20154;-72
2022/09/27 04:02:44;;;;;;;9.80;1.88;;;;;;;7.50;100.00;99552.38;1978293;28;20054;-69
2022/09/27 04:03:41;;;;;;;8.65;1.90;;;;;;;7.50;100.00;99557.59;1978160;28;20478;-71
2022/09/27 04:04:39;;;;;;;6.68;1.70;;;;;;;7.50;100.00;99548.06;1978161;28;20056;-73
2022/09/27 04:05:36;;;;;;;6.82;2.10;;;;;;;7.51;100.00;99556.66;1977455;28;20029;-73
2022/09/27 04:06:34;;;;;;;10.63;2.10;;;;;;;7.53;100.00;99560.03;1977684;28;20108;-69
2022/09/27 04:07:31;;;;;;;9.43;2.08;;;;;;;7.54;100.00;99559.09;1978112;28;20039;-70
2022/09/27 04:08:29;;;;;;;8.55;1.50;;;;;;;7.50;100.00;99562.78;1978078;28;20036;-71
2022/09/27 04:09:26;;;;;;;9.93;1.90;;;;;;;7.55;100.00;99576.34;1978281;28;20108;-72
2022/09/27 04:10:24;;;;;;;9.20;1.60;;;;;;;7.53;100.00;99571.22;1978305;28;20538;-72
2022/09/27 04:11:22;;;;;;;8.40;2.03;;;;;;;7.50;100.00;99573.16;1977990;28;20481;-68
2022/09/27 04:12:20;;;;;;;5.18;1.60;;;;;;;7.45;100.00;99563.84;1978074;28;20053;-70
2022/09/27 04:13:17;;;;;;;6.13;1.55;;;;;;;7.49;100.00;99571.47;1977441;28;20528;-70
2022/09/27 04:14:14;;;;;;;8.73;2.28;;;;;;;7.50;100.00;99563.63;1975239;28;20053;-73
2022/09/27 04:15:12;;;;;;;7.22;1.67;;;;;;;7.46;100.00;99562.91;1977999;28;20050;-69
2022/09/27 04:16:10;;;;;;;5.80;1.52;;;;;;;7.46;100.00;99565.50;1978036;28;20478;-69
2022/09/27 04:17:07;;;;;;;8.75;1.60;;;;;;;7.45;100.00;99569.03;1978029;28;20040;-68
2022/09/27 04:18:05;;;;;;;8.02;2.00;;;;;;;7.50;100.00;99557.59;1977943;28;20068;-69
2022/09/27 04:19:03;;;;;;;6.82;1.50;;;;;;;7.51;100.00;99559.25;1978102;28;20430;-70
2022/09/27 04:20:02;;;;;;;7.82;1.75;;;;;;;7.51;100.00;99556.66;1978123;28;20052;-70
2022/09/27 04:20:59;;;;;;;9.05;1.92;;;;;;;7.50;100.00;99557.59;1978055;28;20021;-70
2022/09/27 04:21:57;;;;;;;9.65;1.75;;;;;;;7.44;100.00;99562.16;1977995;28;20029;-70
2022/09/27 04:22:54;;;;;;;8.82;1.67;;;;;;;7.47;100.00;99554.22;1978099;28;20447;-69
2022/09/27 04:23:51;;;;;;;6.80;1.63;;;;;;;7.45;100.00;99557.81;1977930;28;20436;-70
2022/09/27 04:24:49;;;;;;;13.60;2.10;;;;;;;7.47;100.00;99549.00;1977925;28;20025;-69
2022/09/27 04:25:46;;;;;;;10.55;1.90;;;;;;;7.43;100.00;99552.69;1977857;28;20444;-70
2022/09/27 04:26:44;;;;;;;6.20;1.65;;;;;;;7.44;100.00;99544.00;1978055;28;20028;-70
2022/09/27 04:27:46;;;;;;;6.65;1.50;;;;;;;7.47;100.00;99550.78;1978037;28;20021;-69
2022/09/27 04:28:44;;;;;;;6.88;1.33;;;;;;;7.44;100.00;99544.00;1978118;28;20080;-70
2022/09/27 04:29:44;;;;;;;5.93;1.60;;;;;;;7.46;100.00;99536.97;1977240;28;20107;-69
2022/09/27 04:30:41;;;;;;;;;;;;;;;7.38;100.00;99539.09;1977786;28;20047;-72
2022/09/27 04:31:39;;;;;;;4.75;1.30;;;;;;;7.37;100.00;99536.59;1977837;28;19915;-73
2022/09/27 04:32:44;;;;;;;6.32;1.73;;;;;;;7.36;100.00;99535.75;1977914;28;20109;-70
2022/09/27 04:33:41;;;;;;;6.63;1.23;;;;;;;7.35;100.00;99528.88;1977897;28;20040;-68
2022/09/27 04:37:11;;;;;;;3.20;1.30;;;;;;;7.35;100.00;99528.88;1977890;28;20049;-69
2022/09/27 04:38:08;;;;;;;9.60;1.77;;;;;;;7.33;100.00;99517.75;1977723;28;20025;-70
2022/09/27 04:39:08;;;;;;;9.05;1.38;;;;;;;7.31;100.00;99525.59;1977287;28;20457;-70
2022/09/27 04:40:06;;;;;;;7.45;1.70;;;;;;;7.31;100.00;99523.00;1977104;28;20105;-67
2022/09/27 04:41:04;;;;;;;7.70;1.58;;;;;;;7.28;100.00;99524.91;1984786;28;20028;-68
2022/09/27 04:42:02;;;;;;;7.28;1.80;;;;;;;7.28;100.00;99532.69;1978477;28;20049;-69
2022/09/27 04:43:02;;;;;;;4.75;1.35;;;;;;;7.25;100.00;99532.84;1977825;28;20119;-73
2022/09/27 04:44:00;;;;;;;4.72;1.25;;;;;;;7.26;100.00;99529.34;1975395;28;20025;-70
2022/09/27 04:44:58;;;;;;;4.60;1.30;;;;;;;7.22;100.00;99526.88;1977782;28;20056;-69
2022/09/27 04:45:55;;;;;;;6.43;1.33;;;;;;;7.21;100.00;99533.00;1977831;28;20393;-69
2022/09/27 04:46:53;;;;;;;8.10;1.75;;;;;;;7.22;100.00;99528.63;1977778;28;20091;-71
2022/09/27 04:47:50;;;;;;;8.25;1.83;;;;;;;7.21;100.00;99522.63;1977987;28;20107;-71
2022/09/27 04:48:48;;;;;;;9.57;1.77;;;;;;;7.22;100.00;99524.28;1977684;28;20055;-68
2022/09/27 04:49:47;;;;;;;6.25;1.50;;;;;;;7.18;100.00;99529.72;1977857;28;20100;-69
2022/09/27 04:50:44;;;;;;;9.00;1.60;;;;;;;7.17;100.00;99530.63;1977039;28;20523;-69
2022/09/27 04:51:42;;;;;;;6.75;1.63;;;;;;;7.20;100.00;99536.53;1977348;28;20067;-69
2022/09/27 04:52:40;;;;;;;3.95;1.35;;;;;;;7.20;100.00;99535.66;1976456;28;20041;-73
2022/09/27 04:53:38;;;;;;;5.15;1.13;;;;;;;7.17;100.00;99526.28;1977245;28;20102;-71
2022/09/27 04:54:36;;;;;;;8.43;1.70;;;;;;;7.15;100.00;99527.28;1977591;28;20040;-75
2022/09/27 04:55:34;;;;;;;5.15;1.70;;;;;;;7.15;100.00;99529.88;1977105;28;20021;-69
2022/09/27 04:56:32;;;;;;;4.93;1.50;;;;;;;7.16;100.00;99529.81;1977137;28;20428;-70
2022/09/27 04:57:29;;;;;;;7.80;2.00;;;;;;;7.16;100.00;99535.00;1977695;28;20036;-70
2022/09/27 04:58:28;;;;;;;6.57;1.73;;;;;;;7.15;100.00;99532.47;1977563;28;20040;-69
2022/09/27 04:59:26;;;;;;;4.85;1.80;;;;;;;7.16;100.00;99540.19;1977384;28;20098;-69
2022/09/27 05:00:27;;;;;;;6.25;1.50;;;;;;;7.12;100.00;99538.63;1977793;28;20156;-69
2022/09/27 05:01:25;;;;;;;5.88;1.73;;;;;;;7.15;100.00;99543.69;1977551;28;20034;-73
2022/09/27 05:02:22;;;;;;;7.50;1.60;;;;;;;7.19;100.00;99541.78;1977844;28;20116;-69
2022/09/27 05:03:21;;;;;;;3.78;1.25;;;;;;;7.13;100.00;99545.53;1977635;28;20388;-72
2022/09/27 05:04:19;;;;;;;4.60;1.60;;;;;;;7.18;100.00;99546.13;1977057;28;20043;-69
2022/09/27 05:05:19;;;;;;;6.45;1.58;;;;;;;7.21;100.00;99553.75;1969267;28;20501;-73